createdAt,value
2023-08-17T00:00:21.226Z,4.50
2023-08-17T00:01:52.944Z,4.38
2023-08-17T00:03:24.801Z,4.10
2023-08-17T00:04:56.490Z,3.63
2023-08-17T00:06:29.594Z,4.10
2023-08-17T00:08:01.256Z,4.20
2023-08-17T00:09:33.199Z,4.28
2023-08-17T00:11:04.820Z,4.40
2023-08-17T00:12:36.466Z,4.85
2023-08-17T00:14:08.132Z,4.70
2023-08-17T00:15:40.196Z,4.20
2023-08-17T00:17:11.916Z,4.47
2023-08-17T00:18:43.551Z,4.50
2023-08-17T00:20:15.393Z,4.30
2023-08-17T00:21:48.411Z,4.22
2023-08-17T00:23:21.792Z,4.47
2023-08-17T00:24:53.504Z,4.53
2023-08-17T00:26:26.019Z,4.68
2023-08-17T00:27:57.846Z,4.65
2023-08-17T00:29:29.559Z,4.53
2023-08-17T00:31:01.228Z,4.53
2023-08-17T00:32:32.906Z,4.38
2023-08-17T00:34:04.794Z,4.60
2023-08-17T00:35:36.423Z,5.10
2023-08-17T00:37:09.671Z,4.82
2023-08-17T00:38:43.964Z,4.80
2023-08-17T00:40:15.777Z,4.97
2023-08-17T00:41:47.570Z,4.80
2023-08-17T00:43:19.215Z,4.90
2023-08-17T00:44:50.839Z,4.72
2023-08-17T00:46:24.168Z,5.20
2023-08-17T00:47:56.321Z,4.97
2023-08-17T00:49:28.253Z,4.75
2023-08-17T00:50:59.885Z,4.80
2023-08-17T00:52:33.702Z,4.45
2023-08-17T00:54:05.833Z,4.70
2023-08-17T00:55:37.519Z,5.07
2023-08-17T00:57:09.751Z,4.97
2023-08-17T00:58:41.639Z,4.93
2023-08-17T01:00:15.231Z,5.00
2023-08-17T01:01:49.024Z,5.13
2023-08-17T01:03:20.767Z,4.78
2023-08-17T01:04:52.873Z,4.70
2023-08-17T01:06:24.583Z,4.82
2023-08-17T01:07:57.782Z,4.80
2023-08-17T01:09:29.447Z,4.75
2023-08-17T01:11:06.343Z,5.00
2023-08-17T01:12:42.600Z,4.53
2023-08-17T01:14:16.895Z,4.75
2023-08-17T01:15:51.370Z,4.88
2023-08-17T01:17:25.646Z,5.53
2023-08-17T01:18:58.970Z,5.13
2023-08-17T01:20:30.711Z,5.22
2023-08-17T01:22:04.781Z,5.25
2023-08-17T01:23:37.805Z,5.47
2023-08-17T01:25:09.736Z,5.03
2023-08-17T01:26:41.420Z,5.55
2023-08-17T01:28:13.106Z,5.43
2023-08-17T01:29:44.803Z,4.88
2023-08-17T01:31:21.040Z,5.22
2023-08-17T01:32:59.268Z,5.20
2023-08-17T01:34:30.950Z,5.03
2023-08-17T01:36:05.965Z,4.90
2023-08-17T01:37:37.584Z,5.00
2023-08-17T01:39:13.564Z,5.00
2023-08-17T01:40:46.010Z,4.85
2023-08-17T01:42:17.665Z,5.18
2023-08-17T01:43:49.350Z,5.28
2023-08-17T01:45:21.022Z,5.32
2023-08-17T01:46:52.753Z,5.00
2023-08-17T01:48:24.448Z,4.63
2023-08-17T01:50:00.580Z,5.10
2023-08-17T01:51:32.252Z,4.78
2023-08-17T01:53:04.263Z,4.82
2023-08-17T01:54:37.351Z,5.32
2023-08-17T01:56:09.453Z,4.90
2023-08-17T01:57:42.332Z,4.75
2023-08-17T01:59:14.226Z,5.10
2023-08-17T02:00:45.914Z,5.18
2023-08-17T02:02:18.357Z,5.05
2023-08-17T02:05:21.843Z,4.80
2023-08-17T02:06:53.592Z,4.90
2023-08-17T02:08:25.256Z,4.90
2023-08-17T02:09:58.313Z,4.93
2023-08-17T02:11:29.967Z,5.03
2023-08-17T02:13:12.411Z,5.05
2023-08-17T02:14:49.483Z,5.10
2023-08-17T02:16:21.186Z,5.03
2023-08-17T02:17:53.011Z,4.95
2023-08-17T02:19:24.731Z,4.80
2023-08-17T02:20:56.531Z,4.90
2023-08-17T02:22:31.160Z,4.80
2023-08-17T02:24:02.841Z,4.63
2023-08-17T02:25:38.501Z,4.88
2023-08-17T02:27:10.376Z,4.90
2023-08-17T02:28:42.066Z,4.80
2023-08-17T02:30:14.698Z,5.00
2023-08-17T02:31:47.573Z,4.88
2023-08-17T02:33:19.330Z,5.10
2023-08-17T02:34:51.054Z,4.80
2023-08-17T02:36:22.800Z,5.03
2023-08-17T02:37:54.671Z,4.93
2023-08-17T02:39:26.938Z,4.90
2023-08-17T02:40:59.939Z,4.70
2023-08-17T02:42:31.640Z,5.00
2023-08-17T02:44:03.592Z,4.55
2023-08-17T02:45:35.275Z,4.65
2023-08-17T02:47:07.055Z,5.03
2023-08-17T02:48:38.699Z,4.95
2023-08-17T02:50:10.965Z,4.65
2023-08-17T02:51:42.597Z,5.05
2023-08-17T02:53:14.238Z,5.00
2023-08-17T02:54:45.950Z,4.82
2023-08-17T02:56:18.972Z,4.90
2023-08-17T02:57:50.633Z,4.70
2023-08-17T02:59:22.464Z,5.10
2023-08-17T03:00:54.847Z,5.00
2023-08-17T03:02:26.611Z,4.95
2023-08-17T03:03:58.296Z,5.10
2023-08-17T03:05:30.014Z,4.80
2023-08-17T03:07:01.866Z,5.25
2023-08-17T03:08:33.477Z,4.88
2023-08-17T03:10:06.076Z,5.25
2023-08-17T03:11:39.075Z,5.20
2023-08-17T03:13:10.854Z,5.78
2023-08-17T03:14:42.459Z,5.30
2023-08-17T03:16:14.161Z,5.60
2023-08-17T03:17:45.938Z,5.13
2023-08-17T03:19:18.622Z,5.50
2023-08-17T03:20:50.385Z,5.18
2023-08-17T03:22:22.113Z,5.15
2023-08-17T03:23:53.855Z,5.22
2023-08-17T03:25:25.576Z,5.13
2023-08-17T03:26:58.570Z,5.28
2023-08-17T03:28:30.288Z,5.22
2023-08-17T03:30:01.975Z,4.82
2023-08-17T03:31:33.619Z,5.28
2023-08-17T03:33:05.578Z,4.93
2023-08-17T03:34:37.236Z,5.05
2023-08-17T03:36:09.231Z,5.78
2023-08-17T03:37:40.897Z,5.45
2023-08-17T03:39:12.627Z,6.40
2023-08-17T03:40:44.301Z,5.70
2023-08-17T03:42:17.325Z,5.75
2023-08-17T03:43:49.053Z,5.95
2023-08-17T03:45:20.715Z,6.38
2023-08-17T03:46:52.459Z,5.55
2023-08-17T03:48:24.104Z,5.85
2023-08-17T03:49:56.071Z,6.32
2023-08-17T03:51:27.861Z,5.35
2023-08-17T03:52:59.538Z,5.65
2023-08-17T03:54:31.166Z,6.20
2023-08-17T03:56:03.253Z,5.78
2023-08-17T03:57:39.071Z,6.03
2023-08-17T03:59:11.295Z,5.60
2023-08-17T04:00:43.449Z,5.65
2023-08-17T04:02:15.109Z,5.50
2023-08-17T04:03:46.908Z,5.30
2023-08-17T04:05:18.995Z,5.40
2023-08-17T04:06:50.798Z,5.72
2023-08-17T04:08:22.604Z,5.65
2023-08-17T04:09:54.403Z,5.50
2023-08-17T04:11:26.036Z,5.57
2023-08-17T04:12:59.084Z,6.03
2023-08-17T04:14:30.753Z,6.30
2023-08-17T04:16:02.399Z,6.00
2023-08-17T04:17:34.240Z,5.90
2023-08-17T04:19:06.134Z,5.70
2023-08-17T04:20:37.868Z,5.55
2023-08-17T04:22:09.665Z,6.22
2023-08-17T04:23:41.281Z,5.53
2023-08-17T04:25:13.857Z,5.90
2023-08-17T04:26:45.524Z,5.90
2023-08-17T04:28:18.558Z,5.60
2023-08-17T04:29:50.209Z,5.80
2023-08-17T04:31:21.951Z,5.70
2023-08-17T04:32:53.988Z,5.50
2023-08-17T04:34:25.991Z,5.40
2023-08-17T04:35:57.692Z,5.80
2023-08-17T04:37:29.509Z,5.57
2023-08-17T04:39:01.233Z,5.55
2023-08-17T04:40:33.224Z,6.20
2023-08-17T04:42:05.414Z,5.55
2023-08-17T04:43:38.401Z,5.47
2023-08-17T04:45:10.323Z,6.10
2023-08-17T04:46:42.012Z,5.40
2023-08-17T04:48:13.709Z,5.43
2023-08-17T04:49:45.354Z,5.65
2023-08-17T04:51:17.142Z,5.88
2023-08-17T04:52:48.814Z,5.85
2023-08-17T04:54:20.441Z,6.30
2023-08-17T04:55:52.376Z,5.97
2023-08-17T04:57:24.375Z,5.78
2023-08-17T04:58:57.625Z,6.45
2023-08-17T05:00:29.706Z,5.63
2023-08-17T05:02:01.344Z,6.30
2023-08-17T05:03:34.012Z,6.10
2023-08-17T05:05:11.125Z,5.93
2023-08-17T05:06:43.739Z,5.95
2023-08-17T05:08:15.420Z,5.50
2023-08-17T05:09:47.167Z,5.60
2023-08-17T05:11:18.929Z,6.03
2023-08-17T05:12:50.656Z,6.57
2023-08-17T05:14:23.694Z,5.88
2023-08-17T05:15:55.369Z,6.40
2023-08-17T05:17:27.362Z,6.03
2023-08-17T05:19:00.575Z,6.65
2023-08-17T05:20:34.297Z,5.80
2023-08-17T05:22:06.670Z,6.25
2023-08-17T05:23:38.329Z,5.70
2023-08-17T05:25:10.254Z,5.15
2023-08-17T05:26:41.963Z,5.35
2023-08-17T05:28:13.589Z,5.28
2023-08-17T05:29:46.560Z,5.57
2023-08-17T05:31:18.247Z,5.57
2023-08-17T05:32:49.996Z,5.00
2023-08-17T05:34:21.694Z,5.55
2023-08-17T05:35:55.004Z,4.65
2023-08-17T05:37:26.890Z,4.90
2023-08-17T05:38:58.728Z,4.45
2023-08-17T05:40:31.174Z,4.30
2023-08-17T05:42:03.081Z,4.82
2023-08-17T05:43:34.699Z,4.22
2023-08-17T05:45:09.204Z,4.55
2023-08-17T05:46:40.866Z,4.43
2023-08-17T05:48:12.578Z,4.20
2023-08-17T05:49:44.215Z,4.38
2023-08-17T05:51:15.852Z,4.10
2023-08-17T05:52:50.053Z,3.90
2023-08-17T05:54:21.683Z,3.80
2023-08-17T05:55:56.442Z,3.78
2023-08-17T05:57:28.319Z,3.70
2023-08-17T05:59:00.315Z,3.90
2023-08-17T06:00:33.386Z,4.40
2023-08-17T06:02:05.376Z,3.92
2023-08-17T06:03:37.219Z,4.18
2023-08-17T06:05:10.393Z,4.10
2023-08-17T06:06:42.087Z,3.75
2023-08-17T06:08:13.817Z,3.90
2023-08-17T06:09:45.439Z,3.88
2023-08-17T06:11:17.088Z,4.00
2023-08-17T06:12:48.732Z,3.90
2023-08-17T06:14:20.433Z,3.80
2023-08-17T06:15:53.504Z,3.63
2023-08-17T06:17:25.394Z,3.70
2023-08-17T06:18:57.381Z,3.88
2023-08-17T06:20:29.091Z,3.80
2023-08-17T06:22:00.724Z,3.70
2023-08-17T06:23:32.343Z,3.88
2023-08-17T06:25:06.093Z,3.80
2023-08-17T06:26:37.734Z,3.70
2023-08-17T06:28:09.399Z,4.00
2023-08-17T06:29:41.040Z,4.10
2023-08-17T06:31:16.921Z,4.38
2023-08-17T06:32:48.719Z,4.45
2023-08-17T06:34:20.418Z,4.65
2023-08-17T06:35:52.156Z,4.32
2023-08-17T06:37:23.819Z,4.13
2023-08-17T06:38:55.458Z,4.18
2023-08-17T06:40:27.259Z,4.45
2023-08-17T06:41:58.873Z,3.80
2023-08-17T06:43:33.390Z,4.50
2023-08-17T06:45:06.497Z,4.30
2023-08-17T06:46:39.526Z,4.13
2023-08-17T06:48:11.263Z,4.47
2023-08-17T06:49:43.362Z,4.00
2023-08-17T06:51:15.020Z,3.90
2023-08-17T06:52:46.696Z,4.00
2023-08-17T06:54:18.351Z,3.88
2023-08-17T06:55:50.041Z,4.07
2023-08-17T06:57:22.958Z,4.20
2023-08-17T06:58:54.618Z,4.05
2023-08-17T07:00:26.379Z,4.07
2023-08-17T07:01:59.998Z,4.03
2023-08-17T07:03:31.812Z,4.60
2023-08-17T07:05:06.582Z,4.50
2023-08-17T07:06:38.258Z,4.40
2023-08-17T07:08:12.499Z,4.60
2023-08-17T07:09:44.213Z,5.00
2023-08-17T07:11:15.827Z,5.03
2023-08-17T07:12:47.872Z,4.53
2023-08-17T07:14:21.823Z,4.88
2023-08-17T07:15:55.128Z,4.97
2023-08-17T07:17:28.603Z,5.03
2023-08-17T07:19:00.541Z,4.75
2023-08-17T07:20:35.385Z,5.50
2023-08-17T07:22:10.150Z,5.75
2023-08-17T07:23:46.002Z,5.35
2023-08-17T07:25:17.831Z,4.97
2023-08-17T07:26:49.550Z,4.90
2023-08-17T07:28:21.328Z,4.88
2023-08-17T07:29:55.498Z,4.78
2023-08-17T07:31:27.889Z,4.85
2023-08-17T07:33:00.935Z,4.90
2023-08-17T07:34:32.594Z,4.60
2023-08-17T07:36:05.634Z,4.63
2023-08-17T07:37:37.380Z,5.07
2023-08-17T07:39:09.304Z,4.88
2023-08-17T07:40:40.999Z,5.10
2023-08-17T07:42:12.682Z,5.20
2023-08-17T07:43:44.506Z,5.57
2023-08-17T07:45:16.687Z,5.40
2023-08-17T07:46:48.335Z,6.00
2023-08-17T07:48:21.740Z,5.65
2023-08-17T07:49:53.454Z,5.25
2023-08-17T07:51:25.139Z,5.70
2023-08-17T07:52:56.816Z,5.95
2023-08-17T07:54:28.898Z,5.70
2023-08-17T07:56:00.542Z,5.78
2023-08-17T07:57:32.553Z,5.67
2023-08-17T07:59:04.684Z,5.53
2023-08-17T08:00:36.437Z,5.75
2023-08-17T08:02:08.101Z,5.90
2023-08-17T08:03:41.143Z,5.60
2023-08-17T08:05:15.195Z,7.27
2023-08-17T08:06:47.163Z,6.63
2023-08-17T08:08:18.853Z,6.35
2023-08-17T08:09:50.510Z,6.07
2023-08-17T08:11:22.822Z,6.22
2023-08-17T08:12:54.656Z,5.97
2023-08-17T08:14:26.449Z,6.22
2023-08-17T08:15:59.429Z,6.10
2023-08-17T08:17:31.566Z,5.38
2023-08-17T08:19:05.177Z,5.53
2023-08-17T08:20:37.021Z,5.88
2023-08-17T08:22:08.720Z,5.57
2023-08-17T08:23:40.432Z,5.25
2023-08-17T08:25:12.232Z,5.53
2023-08-17T08:26:43.917Z,5.47
2023-08-17T08:28:15.827Z,6.25
2023-08-17T08:29:47.750Z,5.83
2023-08-17T08:31:19.553Z,5.93
2023-08-17T08:32:51.258Z,5.57
2023-08-17T08:34:24.421Z,5.20
2023-08-17T08:35:56.085Z,5.37
2023-08-17T08:37:30.521Z,5.40
2023-08-17T08:39:02.321Z,5.18
2023-08-17T08:40:34.021Z,5.05
2023-08-17T08:42:05.779Z,5.30
2023-08-17T08:43:37.537Z,5.03
2023-08-17T08:45:10.048Z,5.10
2023-08-17T08:46:43.164Z,5.10
2023-08-17T08:48:15.046Z,4.30
2023-08-17T08:49:51.538Z,4.45
2023-08-17T08:51:26.250Z,4.67
2023-08-17T08:52:59.775Z,4.43
2023-08-17T08:54:31.529Z,4.80
2023-08-17T08:56:03.392Z,4.67
2023-08-17T08:57:35.160Z,4.73
2023-08-17T08:59:07.009Z,4.50
2023-08-17T09:00:38.871Z,4.60
2023-08-17T09:02:13.645Z,4.53
2023-08-17T09:03:45.867Z,5.60
2023-08-17T09:05:19.333Z,4.80
2023-08-17T09:06:51.137Z,4.80
2023-08-17T09:08:26.535Z,5.00
2023-08-17T09:09:58.231Z,4.50
2023-08-17T09:11:33.315Z,5.10
2023-08-17T09:13:05.010Z,5.03
2023-08-17T09:14:38.259Z,5.13
2023-08-17T09:16:12.464Z,4.67
2023-08-17T09:17:44.429Z,5.00
2023-08-17T09:19:16.228Z,5.00
2023-08-17T09:20:49.691Z,5.17
2023-08-17T09:22:25.404Z,4.97
2023-08-17T09:24:00.536Z,5.53
2023-08-17T09:25:32.926Z,5.50
2023-08-17T09:27:10.840Z,5.73
2023-08-17T09:28:42.735Z,5.63
2023-08-17T09:31:50.830Z,5.60
2023-08-17T09:33:22.842Z,5.37
2023-08-17T09:34:54.520Z,5.53
2023-08-17T09:36:27.609Z,5.57
2023-08-17T09:37:59.460Z,5.30
2023-08-17T09:39:31.125Z,5.50
2023-08-17T09:41:03.122Z,5.60
2023-08-17T09:42:35.762Z,5.50
2023-08-17T09:44:07.778Z,5.60
2023-08-17T09:45:40.044Z,5.80
2023-08-17T09:47:11.698Z,5.37
2023-08-17T09:48:44.657Z,5.30
2023-08-17T09:50:16.506Z,5.30
2023-08-17T09:51:49.670Z,5.30
2023-08-17T09:53:21.376Z,5.00
2023-08-17T09:54:53.411Z,5.63
2023-08-17T09:56:25.131Z,5.30
2023-08-17T09:57:56.838Z,5.10
2023-08-17T09:59:28.570Z,5.00
2023-08-17T10:01:00.314Z,4.90
2023-08-17T10:02:32.065Z,5.20
2023-08-17T10:04:04.089Z,5.13
2023-08-17T10:05:38.286Z,5.40
2023-08-17T10:07:11.280Z,5.07
2023-08-17T10:08:45.138Z,6.10
2023-08-17T10:10:17.808Z,5.40
2023-08-17T10:11:49.476Z,6.30
2023-08-17T10:13:25.030Z,6.50
2023-08-17T10:14:59.071Z,5.83
2023-08-17T10:16:34.626Z,5.93
2023-08-17T10:18:15.651Z,6.07
2023-08-17T10:19:53.197Z,6.03
2023-08-17T10:21:28.549Z,6.30
2023-08-17T10:23:06.318Z,6.40
2023-08-17T10:24:39.435Z,6.60
2023-08-17T10:26:11.354Z,6.33
2023-08-17T10:27:43.152Z,6.30
2023-08-17T10:29:17.432Z,6.00
2023-08-17T10:30:49.550Z,6.23
2023-08-17T10:32:22.816Z,5.83
2023-08-17T10:33:58.279Z,6.53
2023-08-17T10:35:30.096Z,5.90
2023-08-17T10:37:01.776Z,5.83
2023-08-17T10:38:34.847Z,7.83
2023-08-17T10:40:07.777Z,8.37
2023-08-17T10:41:47.432Z,6.57
2023-08-17T10:44:54.807Z,6.60
2023-08-17T10:46:35.555Z,6.10
2023-08-17T10:48:27.067Z,5.73
2023-08-17T10:49:59.440Z,6.40
2023-08-17T10:51:31.092Z,6.13
2023-08-17T10:53:05.215Z,5.60
2023-08-17T10:54:39.232Z,6.10
2023-08-17T10:56:15.008Z,5.90
2023-08-17T10:57:46.643Z,5.70
2023-08-17T10:59:25.971Z,5.77
2023-08-17T11:00:58.040Z,5.90
2023-08-17T11:02:35.606Z,6.13
2023-08-17T11:04:12.443Z,5.10
2023-08-17T11:05:45.270Z,5.43
2023-08-17T11:07:17.609Z,5.33
2023-08-17T11:08:53.068Z,5.30
2023-08-17T11:10:35.884Z,5.47
2023-08-17T11:12:07.642Z,5.10
2023-08-17T11:13:39.956Z,5.33
2023-08-17T11:15:11.687Z,5.20
2023-08-17T11:16:43.447Z,5.40
2023-08-17T11:18:15.194Z,5.03
2023-08-17T11:19:46.839Z,5.07
2023-08-17T11:21:20.117Z,5.70
2023-08-17T11:22:52.345Z,5.20
2023-08-17T11:24:29.361Z,5.30
2023-08-17T11:26:02.613Z,5.27
2023-08-17T11:27:38.952Z,5.30
2023-08-17T11:29:11.101Z,4.97
2023-08-17T11:32:19.399Z,4.90
2023-08-17T11:35:27.086Z,5.00
2023-08-17T11:36:58.915Z,5.07
2023-08-17T11:38:31.231Z,5.13
2023-08-17T11:40:03.288Z,4.70
2023-08-17T11:41:36.375Z,5.20
2023-08-17T11:43:09.413Z,5.20
2023-08-17T11:44:41.639Z,5.90
2023-08-17T11:46:16.084Z,6.27
2023-08-17T11:47:48.057Z,5.80
2023-08-17T11:49:19.729Z,5.07
2023-08-17T11:50:51.876Z,5.17
2023-08-17T11:52:23.509Z,5.20
2023-08-17T11:53:55.232Z,5.07
2023-08-17T11:55:27.284Z,4.90
2023-08-17T11:57:05.352Z,5.27
2023-08-17T11:58:40.816Z,5.17
2023-08-17T12:00:18.585Z,5.20
2023-08-17T12:01:50.458Z,5.30
2023-08-17T12:03:22.216Z,5.27
2023-08-17T12:04:54.214Z,5.30
2023-08-17T12:06:25.956Z,5.20
2023-08-17T12:07:57.630Z,5.20
2023-08-17T12:09:29.461Z,5.47
2023-08-17T12:11:01.641Z,5.83
2023-08-17T12:12:37.661Z,5.30
2023-08-17T12:14:10.956Z,5.30
2023-08-17T12:15:42.727Z,5.60
2023-08-17T12:17:15.697Z,4.77
2023-08-17T12:18:48.732Z,4.93
2023-08-17T12:20:21.084Z,5.10
2023-08-17T12:21:52.808Z,5.33
2023-08-17T12:23:24.540Z,5.23
2023-08-17T12:24:56.192Z,5.23
2023-08-17T12:26:28.763Z,4.97
2023-08-17T12:28:02.205Z,5.27
2023-08-17T12:29:33.945Z,5.83
2023-08-17T12:31:05.624Z,5.70
2023-08-17T12:32:37.977Z,5.30
2023-08-17T12:34:09.764Z,5.90
2023-08-17T12:35:41.493Z,5.57
2023-08-17T12:37:13.592Z,5.57
2023-08-17T12:38:46.278Z,5.83
2023-08-17T12:40:17.902Z,5.30
2023-08-17T12:41:49.742Z,5.50
2023-08-17T12:43:22.788Z,6.00
2023-08-17T12:44:54.396Z,5.53
2023-08-17T12:46:26.253Z,5.60
2023-08-17T12:47:57.985Z,5.70
2023-08-17T12:49:29.659Z,5.97
2023-08-17T12:51:02.799Z,5.93
2023-08-17T12:52:35.553Z,5.70
2023-08-17T12:54:07.245Z,5.40
2023-08-17T12:55:38.875Z,5.70
2023-08-17T12:57:13.138Z,5.87
2023-08-17T12:58:46.400Z,5.83
2023-08-17T13:00:18.386Z,6.03
2023-08-17T13:01:50.123Z,6.03
2023-08-17T13:03:21.925Z,5.93
2023-08-17T13:04:53.915Z,5.90
2023-08-17T13:06:29.007Z,5.93
2023-08-17T13:08:05.740Z,5.80
2023-08-17T13:09:37.422Z,6.10
2023-08-17T13:11:09.111Z,5.57
2023-08-17T13:12:40.770Z,5.57
2023-08-17T13:14:15.297Z,5.60
2023-08-17T13:15:47.102Z,5.80
2023-08-17T13:17:18.738Z,6.10
2023-08-17T13:18:50.520Z,5.63
2023-08-17T13:20:23.022Z,6.10
2023-08-17T13:21:54.903Z,5.67
2023-08-17T13:23:26.612Z,5.50
2023-08-17T13:24:58.368Z,5.67
2023-08-17T13:26:30.347Z,6.10
2023-08-17T13:28:02.032Z,6.03
2023-08-17T13:29:36.739Z,6.00
2023-08-17T13:31:23.834Z,6.20
2023-08-17T13:32:56.877Z,6.27
2023-08-17T13:34:28.552Z,6.23
2023-08-17T13:36:00.322Z,5.53
2023-08-17T13:37:32.350Z,6.27
2023-08-17T13:39:04.502Z,6.50
2023-08-17T13:40:37.439Z,6.83
2023-08-17T13:42:09.191Z,6.30
2023-08-17T13:43:41.203Z,6.60
2023-08-17T13:45:14.274Z,6.33
2023-08-17T13:46:45.880Z,6.00
2023-08-17T13:48:17.633Z,6.03
2023-08-17T13:49:49.302Z,5.97
2023-08-17T13:51:21.000Z,5.97
2023-08-17T13:52:52.657Z,6.47
2023-08-17T13:54:24.452Z,6.30
2023-08-17T13:55:56.315Z,6.40
2023-08-17T13:57:27.952Z,6.30
2023-08-17T13:58:59.739Z,5.87
2023-08-17T14:00:33.296Z,5.83
2023-08-17T14:02:05.085Z,6.13
2023-08-17T14:03:37.681Z,5.73
2023-08-17T14:05:10.482Z,6.30
2023-08-17T14:06:42.246Z,6.30
2023-08-17T14:08:13.988Z,6.20
2023-08-17T14:09:57.897Z,5.87
2023-08-17T14:11:37.409Z,6.37
2023-08-17T14:13:09.104Z,6.00
2023-08-17T14:14:40.727Z,5.80
2023-08-17T14:16:13.762Z,6.33
2023-08-17T14:17:45.527Z,6.33
2023-08-17T14:19:17.623Z,6.23
2023-08-17T14:20:49.274Z,6.30
2023-08-17T14:22:20.979Z,6.23
2023-08-17T14:23:52.718Z,6.40
2023-08-17T14:25:24.375Z,6.20
2023-08-17T14:26:57.835Z,6.13
2023-08-17T14:28:29.462Z,6.30
2023-08-17T14:30:02.786Z,5.70
2023-08-17T14:31:35.774Z,5.80
2023-08-17T14:33:07.815Z,5.60
2023-08-17T14:34:39.569Z,6.03
2023-08-17T14:36:11.198Z,5.17
2023-08-17T14:37:42.877Z,5.53
2023-08-17T14:39:14.586Z,5.17
2023-08-17T14:40:46.973Z,5.00
2023-08-17T14:42:18.618Z,3.90
2023-08-17T14:43:50.291Z,4.00
2023-08-17T14:45:21.983Z,4.10
2023-08-17T14:46:54.998Z,4.10
2023-08-17T14:48:26.977Z,4.70
2023-08-17T14:49:58.769Z,5.00
2023-08-17T14:51:31.449Z,5.70
2023-08-17T14:53:03.983Z,6.03
2023-08-17T14:54:35.729Z,5.77
2023-08-17T14:56:07.439Z,5.53
2023-08-17T14:57:39.151Z,6.27
2023-08-17T14:59:11.153Z,5.70
2023-08-17T15:00:42.812Z,5.10
2023-08-17T15:03:52.746Z,5.80
2023-08-17T15:05:28.884Z,6.13
2023-08-17T15:07:00.935Z,5.80
2023-08-17T15:08:33.229Z,7.37
2023-08-17T15:10:05.529Z,5.63
2023-08-17T15:11:37.328Z,5.23
2023-08-17T15:13:11.360Z,5.93
2023-08-17T15:14:43.324Z,5.97
2023-08-17T15:16:15.009Z,5.93
2023-08-17T15:17:48.017Z,5.43
2023-08-17T15:19:34.494Z,5.10
2023-08-17T15:21:11.343Z,4.90
2023-08-17T15:22:43.030Z,5.10
2023-08-17T15:24:14.648Z,4.80
2023-08-17T15:25:46.562Z,4.40
2023-08-17T15:27:18.237Z,4.70
2023-08-17T15:28:49.934Z,4.40
2023-08-17T15:30:21.610Z,4.50
2023-08-17T15:31:53.220Z,4.57
2023-08-17T15:33:26.225Z,4.17
2023-08-17T15:34:58.184Z,4.17
2023-08-17T15:36:29.841Z,4.03
2023-08-17T15:38:01.476Z,4.03
2023-08-17T15:39:33.164Z,3.97
2023-08-17T15:41:04.949Z,4.20
2023-08-17T15:42:36.630Z,4.20
2023-08-17T15:44:08.289Z,4.40
2023-08-17T15:45:41.411Z,4.70
2023-08-17T15:47:13.195Z,4.90
2023-08-17T15:48:46.309Z,4.27
2023-08-17T15:50:19.228Z,4.50
2023-08-17T15:51:50.880Z,5.03
2023-08-17T15:53:22.671Z,4.90
2023-08-17T15:54:54.344Z,5.10
2023-08-17T15:56:26.034Z,5.60
2023-08-17T15:57:57.640Z,5.87
2023-08-17T15:59:29.356Z,5.60
2023-08-17T16:01:01.006Z,5.50
2023-08-17T16:02:32.732Z,5.50
2023-08-17T16:04:05.832Z,5.47
2023-08-17T16:05:37.539Z,5.70
2023-08-17T16:07:09.196Z,5.60
2023-08-17T16:08:49.142Z,5.60
2023-08-17T16:10:21.560Z,5.70
2023-08-17T16:11:54.297Z,5.37
2023-08-17T16:13:25.966Z,5.43
2023-08-17T16:14:57.874Z,5.13
2023-08-17T16:16:29.586Z,5.93
2023-08-17T16:18:01.957Z,5.37
2023-08-17T16:19:35.149Z,4.80
2023-08-17T16:21:13.858Z,4.60
2023-08-17T16:22:46.885Z,4.57
2023-08-17T16:24:18.525Z,4.63
2023-08-17T16:25:50.196Z,4.50
2023-08-17T16:27:21.915Z,4.77
2023-08-17T16:28:53.551Z,4.07
2023-08-17T16:30:25.226Z,4.13
2023-08-17T16:32:00.849Z,4.20
2023-08-17T16:33:32.586Z,3.90
2023-08-17T16:35:06.654Z,4.40
2023-08-17T16:36:38.369Z,3.93
2023-08-17T16:38:12.217Z,4.60
2023-08-17T16:39:44.074Z,4.00
2023-08-17T16:41:15.703Z,4.07
2023-08-17T16:42:47.850Z,4.20
2023-08-17T16:44:20.080Z,4.20
2023-08-17T16:45:52.071Z,3.90
2023-08-17T16:47:27.575Z,4.10
2023-08-17T16:48:59.658Z,4.10
2023-08-17T16:50:34.366Z,4.03
2023-08-17T16:52:07.005Z,4.00
2023-08-17T16:53:44.015Z,4.30
2023-08-17T16:55:18.046Z,4.20
2023-08-17T16:58:24.817Z,4.30
2023-08-17T16:59:56.469Z,3.90
2023-08-17T17:01:28.181Z,4.07
2023-08-17T17:02:59.896Z,4.23
2023-08-17T17:04:31.783Z,3.97
2023-08-17T17:06:04.925Z,4.13
2023-08-17T17:07:36.674Z,3.97
2023-08-17T17:09:08.321Z,4.10
2023-08-17T17:10:39.946Z,3.70
2023-08-17T17:12:11.859Z,3.87
2023-08-17T17:13:43.484Z,4.10
2023-08-17T17:15:15.706Z,4.00
2023-08-17T17:16:47.956Z,3.67
2023-08-17T17:18:19.736Z,3.80
2023-08-17T17:19:51.508Z,3.50
2023-08-17T17:21:24.741Z,3.47
2023-08-17T17:22:58.762Z,3.87
2023-08-17T17:24:32.377Z,4.70
2023-08-17T17:26:08.665Z,7.50
2023-08-17T17:27:41.036Z,5.40
2023-08-17T17:29:12.750Z,4.50
2023-08-17T17:30:44.815Z,4.10
2023-08-17T17:32:16.543Z,3.77
2023-08-17T17:33:48.161Z,3.50
2023-08-17T17:35:19.950Z,3.47
2023-08-17T17:36:53.060Z,3.50
2023-08-17T17:38:24.733Z,3.10
2023-08-17T17:39:56.462Z,3.00
2023-08-17T17:41:28.204Z,3.10
2023-08-17T17:42:59.872Z,3.20
2023-08-17T17:44:31.510Z,3.43
2023-08-17T17:46:04.279Z,3.30
2023-08-17T17:47:36.501Z,3.13
2023-08-17T17:49:08.166Z,3.33
2023-08-17T17:50:40.183Z,3.10
2023-08-17T17:52:13.525Z,2.90
2023-08-17T17:53:45.208Z,3.00
2023-08-17T17:55:16.967Z,3.20
2023-08-17T17:56:49.707Z,2.97
2023-08-17T17:58:21.376Z,3.13
2023-08-17T17:59:53.564Z,2.87
2023-08-17T18:01:25.241Z,3.00
2023-08-17T18:03:09.168Z,2.83
2023-08-17T18:04:42.080Z,3.10
2023-08-17T18:06:13.860Z,2.73
2023-08-17T18:07:46.937Z,3.40
2023-08-17T18:09:18.767Z,2.90
2023-08-17T18:10:50.768Z,3.00
2023-08-17T18:12:22.473Z,3.17
2023-08-17T18:13:57.062Z,3.20
2023-08-17T18:15:28.942Z,2.97
2023-08-17T18:17:01.022Z,3.47
2023-08-17T18:18:33.754Z,3.30
2023-08-17T18:20:07.942Z,3.37
2023-08-17T18:21:39.672Z,3.85
2023-08-17T18:23:12.858Z,3.17
2023-08-17T18:24:45.022Z,3.10
2023-08-17T18:26:16.830Z,3.45
2023-08-17T18:27:48.867Z,3.27
2023-08-17T18:29:20.638Z,3.20
2023-08-17T18:30:52.356Z,2.83
2023-08-17T18:32:26.181Z,3.25
2023-08-17T18:33:57.955Z,3.33
2023-08-17T18:35:30.039Z,3.20
2023-08-17T18:37:02.352Z,3.17
2023-08-17T18:38:35.324Z,2.95
2023-08-17T18:40:08.195Z,3.17
2023-08-17T18:41:39.810Z,3.38
2023-08-17T18:43:11.478Z,3.10
2023-08-17T18:44:43.657Z,3.00
2023-08-17T18:46:15.445Z,3.10
2023-08-17T18:47:50.057Z,3.20
2023-08-17T18:49:21.876Z,3.03
2023-08-17T18:50:53.723Z,2.70
2023-08-17T18:52:28.108Z,3.00
2023-08-17T18:54:02.262Z,3.03
2023-08-17T18:55:34.071Z,3.17
2023-08-17T18:57:06.009Z,2.72
2023-08-17T18:58:37.657Z,2.92
2023-08-17T19:00:13.023Z,3.00
2023-08-17T19:01:44.768Z,2.80
2023-08-17T19:03:16.525Z,2.70
2023-08-17T19:04:48.246Z,2.97
2023-08-17T19:06:19.863Z,2.88
2023-08-17T19:07:51.668Z,3.13
2023-08-17T19:09:24.777Z,2.78
2023-08-17T19:10:57.482Z,3.03
2023-08-17T19:12:29.904Z,2.85
2023-08-17T19:14:03.101Z,2.90
2023-08-17T19:15:35.046Z,2.65
2023-08-17T19:17:09.767Z,3.00
2023-08-17T19:18:44.191Z,2.80
2023-08-17T19:20:16.431Z,3.28
2023-08-17T19:21:48.153Z,3.15
2023-08-17T19:23:21.977Z,2.85
2023-08-17T19:24:55.195Z,3.33
2023-08-17T19:26:27.284Z,3.17
2023-08-17T19:27:58.998Z,2.97
2023-08-17T19:29:31.542Z,2.90
2023-08-17T19:31:03.158Z,2.97
2023-08-17T19:32:34.789Z,2.70
2023-08-17T19:34:07.812Z,3.13
2023-08-17T19:35:39.593Z,2.92
2023-08-17T19:37:11.210Z,2.58
2023-08-17T19:38:42.991Z,3.05
2023-08-17T19:40:16.205Z,3.05
2023-08-17T19:41:48.623Z,3.00
2023-08-17T19:43:20.538Z,3.17
2023-08-17T19:44:52.122Z,3.33
2023-08-17T19:46:23.831Z,3.05
2023-08-17T19:47:55.611Z,3.38
2023-08-17T19:49:27.342Z,3.17
2023-08-17T19:50:58.932Z,2.90
2023-08-17T19:52:30.545Z,3.30
2023-08-17T19:54:02.298Z,2.92
2023-08-17T19:55:35.307Z,3.15
2023-08-17T19:57:10.039Z,3.10
2023-08-17T19:58:41.830Z,3.22
2023-08-17T20:00:17.042Z,3.67
2023-08-17T20:01:54.471Z,3.00
2023-08-17T20:03:32.242Z,3.25
2023-08-17T20:05:06.455Z,3.30
2023-08-17T20:06:38.097Z,3.20
2023-08-17T20:08:12.889Z,2.83
2023-08-17T20:09:44.523Z,3.10
2023-08-17T20:11:17.663Z,3.00
2023-08-17T20:12:49.437Z,2.90
2023-08-17T20:14:23.296Z,2.70
2023-08-17T20:15:55.630Z,3.13
2023-08-17T20:17:27.748Z,3.00
2023-08-17T20:18:59.920Z,3.08
2023-08-17T20:20:31.800Z,3.08
2023-08-17T20:22:03.809Z,3.03
2023-08-17T20:23:35.525Z,3.03
2023-08-17T20:25:08.052Z,2.80
2023-08-17T20:26:41.711Z,2.95
2023-08-17T20:28:18.873Z,2.88
2023-08-17T20:29:53.281Z,2.80
2023-08-17T20:31:25.495Z,2.75
2023-08-17T20:33:00.539Z,3.17
2023-08-17T20:34:34.739Z,3.30
2023-08-17T20:36:06.436Z,2.90
2023-08-17T20:37:38.446Z,2.78
2023-08-17T20:39:10.421Z,2.70
2023-08-17T20:40:42.609Z,2.85
2023-08-17T20:42:15.821Z,2.70
2023-08-17T20:43:47.709Z,3.08